createdAt,value
2019-03-16T00:00:05.582Z,0.85
2019-03-16T00:02:35.042Z,0.80
2019-03-16T00:05:04.993Z,0.70
2019-03-16T00:07:34.406Z,0.95
2019-03-16T00:10:03.769Z,0.78
2019-03-16T00:12:33.033Z,0.90
2019-03-16T00:15:02.457Z,0.87
2019-03-16T00:17:31.962Z,0.73
2019-03-16T00:20:01.461Z,0.90
2019-03-16T00:22:31.085Z,0.90
2019-03-16T00:25:00.680Z,0.95
2019-03-16T00:27:30.144Z,0.80
2019-03-16T00:29:59.631Z,0.90
2019-03-16T00:32:29.200Z,0.90
2019-03-16T00:34:58.788Z,0.90
2019-03-16T00:37:28.125Z,0.78
2019-03-16T00:39:57.542Z,0.90
2019-03-16T00:42:26.940Z,0.85
2019-03-16T00:44:56.503Z,0.90
2019-03-16T00:47:26.017Z,0.95
2019-03-16T00:49:55.332Z,0.90
2019-03-16T00:52:24.484Z,0.90
2019-03-16T00:54:53.787Z,0.80
2019-03-16T00:57:23.345Z,0.88
2019-03-16T00:59:52.973Z,0.95
2019-03-16T01:02:27.352Z,0.70
2019-03-16T01:04:53.895Z,0.70
2019-03-16T01:07:23.126Z,0.70
2019-03-16T01:09:52.648Z,1.00
2019-03-16T01:12:22.100Z,1.07
2019-03-16T01:14:51.427Z,0.70
2019-03-16T01:17:21.066Z,0.90
2019-03-16T01:19:50.582Z,0.80
2019-03-16T01:22:20.539Z,0.80
2019-03-16T01:24:50.110Z,0.90
2019-03-16T01:27:19.283Z,0.80
2019-03-16T01:29:48.773Z,1.40
2019-03-16T01:32:17.920Z,0.90
2019-03-16T01:34:47.542Z,0.90
2019-03-16T01:37:16.943Z,1.17
2019-03-16T01:39:46.191Z,1.20
2019-03-16T01:42:15.542Z,1.05
2019-03-16T01:44:44.900Z,1.05
2019-03-16T01:47:14.294Z,1.07
2019-03-16T01:49:43.752Z,0.90
2019-03-16T01:52:13.954Z,0.75
2019-03-16T01:54:43.723Z,0.82
2019-03-16T01:57:13.128Z,1.00
2019-03-16T01:59:42.623Z,0.90
2019-03-16T02:02:12.117Z,1.12
2019-03-16T02:04:41.587Z,0.82
2019-03-16T02:07:10.955Z,1.10
2019-03-16T02:09:40.699Z,1.00
2019-03-16T02:12:09.994Z,0.95
2019-03-16T02:14:39.598Z,1.00
2019-03-16T02:17:09.422Z,0.80
2019-03-16T02:19:38.745Z,1.07
2019-03-16T02:22:08.188Z,1.02
2019-03-16T02:24:37.774Z,0.95
2019-03-16T02:27:07.398Z,0.90
2019-03-16T02:29:36.689Z,0.93
2019-03-16T02:32:05.921Z,0.90
2019-03-16T02:34:35.062Z,0.80
2019-03-16T02:37:04.245Z,0.82
2019-03-16T02:39:33.563Z,0.80
2019-03-16T02:42:02.995Z,0.80
2019-03-16T02:44:32.345Z,0.70
2019-03-16T02:47:01.884Z,0.82
2019-03-16T02:49:31.084Z,0.77
2019-03-16T02:52:00.356Z,0.83
2019-03-16T02:54:29.701Z,0.90
2019-03-16T02:56:58.939Z,0.70
2019-03-16T02:59:28.113Z,0.80
2019-03-16T03:01:57.347Z,0.90
2019-03-16T03:04:26.623Z,0.70
2019-03-16T03:06:55.889Z,0.75
2019-03-16T03:09:25.030Z,0.85
2019-03-16T03:11:54.187Z,0.90
2019-03-16T03:14:23.358Z,1.07
2019-03-16T03:16:52.531Z,1.22
2019-03-16T03:19:21.775Z,1.00
2019-03-16T03:21:50.947Z,1.10
2019-03-16T03:24:20.189Z,1.00
2019-03-16T03:26:49.394Z,1.57
2019-03-16T03:29:18.799Z,1.75
2019-03-16T03:31:47.970Z,1.90
2019-03-16T03:34:17.353Z,1.77
2019-03-16T03:36:46.594Z,1.90
2019-03-16T03:39:15.881Z,1.37
2019-03-16T03:41:45.045Z,1.70
2019-03-16T03:44:14.628Z,1.15
2019-03-16T03:46:44.318Z,1.35
2019-03-16T03:49:13.704Z,1.10
2019-03-16T03:51:43.400Z,2.10
2019-03-16T03:54:12.892Z,1.50
2019-03-16T03:56:42.373Z,1.32
2019-03-16T03:59:12.072Z,1.00
2019-03-16T04:01:41.587Z,1.60
2019-03-16T04:04:15.858Z,1.70
2019-03-16T04:06:42.883Z,1.55
2019-03-16T04:09:12.476Z,1.40
2019-03-16T04:11:41.868Z,1.40
2019-03-16T04:14:11.719Z,1.90
2019-03-16T04:16:41.538Z,1.42
2019-03-16T04:19:11.374Z,1.72
2019-03-16T04:21:41.344Z,1.45
2019-03-16T04:24:11.293Z,1.37
2019-03-16T04:26:40.905Z,1.62
2019-03-16T04:29:10.840Z,1.20
2019-03-16T04:31:40.362Z,1.92
2019-03-16T04:34:09.903Z,1.72
2019-03-16T04:36:39.512Z,1.42
2019-03-16T04:39:09.111Z,1.20
2019-03-16T04:41:38.257Z,1.40
2019-03-16T04:44:07.528Z,1.63
2019-03-16T04:46:36.707Z,1.60
2019-03-16T04:49:06.434Z,1.60
2019-03-16T04:51:35.570Z,1.43
2019-03-16T04:54:04.867Z,1.47
2019-03-16T04:56:34.321Z,1.40
2019-03-16T04:59:03.589Z,1.17
2019-03-16T05:01:32.958Z,1.53
2019-03-16T05:04:02.689Z,1.32
2019-03-16T05:06:31.999Z,2.02
2019-03-16T05:09:01.380Z,1.00
2019-03-16T05:11:30.526Z,0.80
2019-03-16T05:13:59.692Z,0.90
2019-03-16T05:16:28.830Z,1.00
2019-03-16T05:18:58.012Z,1.00
2019-03-16T05:21:27.137Z,1.10
2019-03-16T05:23:56.353Z,1.05
2019-03-16T05:26:25.593Z,1.10
2019-03-16T05:28:54.792Z,0.90
2019-03-16T05:31:23.993Z,0.90
2019-03-16T05:33:53.209Z,1.07
2019-03-16T05:36:22.471Z,1.10
2019-03-16T05:38:51.937Z,1.10
2019-03-16T05:41:21.131Z,1.00
2019-03-16T05:43:50.280Z,0.95
2019-03-16T05:46:19.457Z,1.20
2019-03-16T05:48:48.662Z,1.10
2019-03-16T05:51:17.920Z,1.10
2019-03-16T05:53:47.143Z,1.10
2019-03-16T05:56:16.706Z,1.30
2019-03-16T05:58:46.445Z,1.20
2019-03-16T06:01:15.942Z,1.55
2019-03-16T06:03:45.842Z,1.30
2019-03-16T06:06:15.415Z,1.33
2019-03-16T06:08:45.121Z,1.60
2019-03-16T06:11:15.152Z,1.00
2019-03-16T06:13:46.976Z,0.90
2019-03-16T06:16:17.074Z,1.33
2019-03-16T06:18:47.479Z,1.27
2019-03-16T06:21:17.834Z,1.23
2019-03-16T06:23:47.475Z,2.17
2019-03-16T06:26:17.322Z,1.15
2019-03-16T06:28:46.792Z,0.90
2019-03-16T06:31:16.702Z,1.37
2019-03-16T06:33:46.213Z,1.12
2019-03-16T06:36:15.903Z,1.30
2019-03-16T06:38:45.580Z,1.40
2019-03-16T06:41:16.160Z,1.40
2019-03-16T06:43:45.670Z,1.70
2019-03-16T06:46:15.448Z,1.62
2019-03-16T06:48:45.006Z,1.87
2019-03-16T06:51:15.062Z,2.13
2019-03-16T06:53:45.198Z,1.60
2019-03-16T06:56:14.750Z,1.30
2019-03-16T06:58:44.844Z,1.50
2019-03-16T07:01:14.410Z,1.32
2019-03-16T07:03:46.677Z,1.20
2019-03-16T07:06:16.307Z,1.25
2019-03-16T07:08:46.074Z,1.72
2019-03-16T07:11:15.754Z,1.20
2019-03-16T07:13:47.190Z,2.10
2019-03-16T07:16:17.669Z,1.20
2019-03-16T07:18:58.289Z,1.22
2019-03-16T07:21:20.820Z,1.87
2019-03-16T07:23:51.665Z,2.00
2019-03-16T07:26:22.276Z,1.30
2019-03-16T07:28:52.924Z,2.05
2019-03-16T07:31:24.293Z,1.35
2019-03-16T07:33:55.074Z,1.50
2019-03-16T07:36:25.454Z,1.47
2019-03-16T07:38:56.746Z,1.57
2019-03-16T07:41:27.412Z,1.72
2019-03-16T07:43:57.825Z,1.45
2019-03-16T07:46:28.717Z,1.55
2019-03-16T07:48:59.146Z,1.82
2019-03-16T07:51:29.691Z,1.30
2019-03-16T07:54:00.380Z,1.43
2019-03-16T07:56:31.148Z,1.40
2019-03-16T07:59:01.709Z,2.00
2019-03-16T08:01:33.264Z,1.60
2019-03-16T08:04:03.347Z,1.42
2019-03-16T08:06:34.155Z,1.80
2019-03-16T08:09:05.757Z,1.60
2019-03-16T08:11:36.034Z,2.33
2019-03-16T08:14:06.494Z,1.90
2019-03-16T08:16:37.079Z,2.00
2019-03-16T08:19:07.356Z,1.65
2019-03-16T08:21:37.736Z,1.55
2019-03-16T08:24:08.419Z,1.47
2019-03-16T08:26:39.042Z,1.50
2019-03-16T08:29:09.603Z,1.27
2019-03-16T08:31:40.286Z,1.33
2019-03-16T08:34:10.955Z,1.50
2019-03-16T08:36:41.944Z,1.25
2019-03-16T08:39:12.484Z,1.25
2019-03-16T08:41:43.370Z,1.10
2019-03-16T08:44:14.262Z,1.50
2019-03-16T08:46:44.839Z,1.10
2019-03-16T08:49:15.540Z,1.37
2019-03-16T08:51:46.140Z,1.10
2019-03-16T08:54:17.021Z,1.10
2019-03-16T08:56:47.813Z,1.07
2019-03-16T08:59:18.408Z,1.32
2019-03-16T09:01:48.803Z,1.30
2019-03-16T09:04:18.847Z,1.40
2019-03-16T09:06:49.454Z,1.20
2019-03-16T09:09:19.810Z,1.30
2019-03-16T09:11:50.876Z,1.00
2019-03-16T09:14:21.879Z,1.40
2019-03-16T09:16:52.477Z,1.02
2019-03-16T09:19:23.084Z,1.25
2019-03-16T09:21:53.552Z,1.00
2019-03-16T09:24:25.328Z,0.90
2019-03-16T09:26:56.517Z,1.00
2019-03-16T09:29:26.475Z,1.27
2019-03-16T09:31:57.178Z,1.00
2019-03-16T09:34:28.000Z,1.47
2019-03-16T09:36:58.360Z,1.15
2019-03-16T09:39:28.889Z,1.20
2019-03-16T09:41:59.635Z,1.15
2019-03-16T09:44:30.220Z,1.10
2019-03-16T09:47:01.088Z,1.27
2019-03-16T09:49:31.796Z,1.03
2019-03-16T09:52:02.684Z,1.32
2019-03-16T09:54:33.507Z,0.80
2019-03-16T09:57:04.165Z,1.00
2019-03-16T09:59:34.581Z,1.07
2019-03-16T10:02:05.543Z,0.90
2019-03-16T10:04:36.062Z,1.03
2019-03-16T10:07:06.789Z,1.07
2019-03-16T10:09:37.278Z,1.62
2019-03-16T10:12:08.306Z,1.75
2019-03-16T10:14:38.466Z,0.95
2019-03-16T10:17:09.207Z,0.72
2019-03-16T10:19:40.078Z,0.90
2019-03-16T10:22:10.884Z,1.63
2019-03-16T10:24:41.675Z,0.80
2019-03-16T10:27:12.828Z,1.03
2019-03-16T10:29:43.269Z,1.00
2019-03-16T10:32:14.307Z,0.90
2019-03-16T10:34:45.033Z,0.95
2019-03-16T10:37:15.452Z,1.00
2019-03-16T10:39:45.920Z,0.90
2019-03-16T10:42:16.659Z,0.70
2019-03-16T10:44:47.304Z,0.80
2019-03-16T10:47:17.963Z,0.80
2019-03-16T10:49:48.934Z,0.80
2019-03-16T10:52:19.522Z,1.47
2019-03-16T10:54:50.124Z,0.90
2019-03-16T10:57:21.079Z,0.70
2019-03-16T10:59:54.625Z,0.80
2019-03-16T11:02:25.363Z,0.80
2019-03-16T11:04:55.976Z,0.80
2019-03-16T11:07:26.492Z,1.00
2019-03-16T11:10:00.449Z,1.00
2019-03-16T11:12:31.228Z,0.65
2019-03-16T11:15:01.912Z,0.80
2019-03-16T11:17:32.676Z,1.13
2019-03-16T11:20:04.025Z,1.70
2019-03-16T11:22:34.879Z,2.07
2019-03-16T11:25:06.622Z,2.00
2019-03-16T11:27:37.248Z,0.70
2019-03-16T11:30:09.145Z,0.70
2019-03-16T11:32:42.537Z,0.70
2019-03-16T11:35:13.345Z,0.70
2019-03-16T11:37:43.828Z,0.70
2019-03-16T11:40:14.900Z,0.83
2019-03-16T11:42:45.699Z,0.70
2019-03-16T11:45:17.687Z,0.60
2019-03-16T11:47:47.998Z,0.80
2019-03-16T11:50:18.836Z,0.80
2019-03-16T11:52:49.212Z,0.70
2019-03-16T11:55:20.356Z,0.80
2019-03-16T11:57:50.735Z,0.70
2019-03-16T12:00:23.093Z,0.90
2019-03-16T12:02:53.596Z,0.87
2019-03-16T12:05:24.120Z,0.70
2019-03-16T12:07:54.769Z,0.70
2019-03-16T12:10:25.421Z,0.80
2019-03-16T12:12:56.066Z,0.70
2019-03-16T12:15:27.300Z,1.20
2019-03-16T12:17:57.982Z,0.80
2019-03-16T12:20:28.632Z,0.80
2019-03-16T12:22:59.289Z,0.70
2019-03-16T12:25:30.259Z,0.80
2019-03-16T12:28:00.818Z,0.97
2019-03-16T12:30:31.393Z,1.10
2019-03-16T12:33:02.125Z,0.80
2019-03-16T12:35:32.861Z,1.13
2019-03-16T12:38:03.783Z,0.63
2019-03-16T12:40:34.584Z,1.23
2019-03-16T12:43:05.353Z,1.60
2019-03-16T12:45:36.293Z,0.80
2019-03-16T12:48:07.123Z,0.70
2019-03-16T12:50:37.961Z,0.70
2019-03-16T12:53:08.745Z,0.80
2019-03-16T12:55:39.544Z,0.80
2019-03-16T12:58:10.411Z,0.80
2019-03-16T13:00:41.509Z,0.70
2019-03-16T13:03:12.658Z,0.83
2019-03-16T13:05:43.426Z,0.60
2019-03-16T13:08:14.692Z,0.70
2019-03-16T13:10:45.131Z,0.63
2019-03-16T13:13:16.113Z,0.83
2019-03-16T13:15:46.646Z,0.70
2019-03-16T13:18:17.268Z,0.60
2019-03-16T13:20:47.570Z,0.67
2019-03-16T13:23:18.497Z,0.63
2019-03-16T13:25:49.389Z,0.63
2019-03-16T13:28:19.972Z,0.60
2019-03-16T13:30:50.490Z,0.70
2019-03-16T13:33:20.853Z,0.60
2019-03-16T13:35:51.346Z,0.70
2019-03-16T13:38:22.073Z,0.90
2019-03-16T13:40:52.215Z,0.60
2019-03-16T13:43:22.651Z,0.83
2019-03-16T13:45:54.320Z,0.70
2019-03-16T13:48:25.108Z,0.60
2019-03-16T13:50:55.487Z,0.70
2019-03-16T13:53:26.258Z,0.70
2019-03-16T13:55:57.021Z,0.70
2019-03-16T13:58:27.209Z,0.70
2019-03-16T14:00:57.968Z,0.60
2019-03-16T14:03:28.882Z,0.70
2019-03-16T14:05:59.953Z,0.60
2019-03-16T14:08:30.571Z,0.87
2019-03-16T14:11:01.218Z,0.73
2019-03-16T14:13:32.022Z,0.87
2019-03-16T14:16:02.643Z,0.80
2019-03-16T14:18:33.241Z,0.80
2019-03-16T14:21:04.235Z,0.70
2019-03-16T14:23:34.652Z,0.68
2019-03-16T14:26:05.516Z,0.80
2019-03-16T14:28:36.120Z,0.70
2019-03-16T14:31:06.908Z,0.70
2019-03-16T14:33:37.596Z,1.10
2019-03-16T14:36:08.937Z,0.93
2019-03-16T14:38:40.613Z,0.83
2019-03-16T14:41:11.756Z,0.90
2019-03-16T14:43:42.756Z,1.10
2019-03-16T14:46:14.592Z,1.07
2019-03-16T14:48:45.233Z,0.90
2019-03-16T14:51:16.634Z,0.93
2019-03-16T14:53:47.104Z,0.60
2019-03-16T14:56:18.166Z,0.70
2019-03-16T14:58:48.825Z,0.83
2019-03-16T15:01:19.948Z,0.70
2019-03-16T15:03:50.166Z,0.87
2019-03-16T15:06:20.704Z,1.00
2019-03-16T15:08:51.102Z,0.70
2019-03-16T15:11:21.751Z,0.90
2019-03-16T15:13:52.255Z,0.93
2019-03-16T15:16:22.845Z,0.80
2019-03-16T15:18:53.115Z,0.80
2019-03-16T15:21:23.840Z,0.97
2019-03-16T15:23:54.654Z,0.80
2019-03-16T15:26:25.321Z,1.23
2019-03-16T15:28:55.919Z,0.87
2019-03-16T15:31:26.685Z,1.00
2019-03-16T15:33:57.141Z,0.90
2019-03-16T15:36:28.273Z,0.83
2019-03-16T15:38:58.743Z,0.87
2019-03-16T15:41:29.402Z,0.67
2019-03-16T15:43:59.681Z,0.80
2019-03-16T15:46:30.391Z,0.97
2019-03-16T15:49:00.801Z,0.90
2019-03-16T15:51:31.811Z,0.87
2019-03-16T15:54:02.102Z,0.80
2019-03-16T15:56:33.411Z,0.73
2019-03-16T15:59:03.986Z,1.30
2019-03-16T16:01:34.690Z,1.03
2019-03-16T16:04:05.324Z,1.10
2019-03-16T16:06:36.295Z,7.13
2019-03-16T16:09:08.271Z,1.53
2019-03-16T16:11:39.391Z,1.50
2019-03-16T16:14:10.229Z,2.07
2019-03-16T16:16:42.450Z,0.77
2019-03-16T16:19:14.622Z,1.00
2019-03-16T16:21:45.320Z,0.73
2019-03-16T16:24:16.302Z,0.83
2019-03-16T16:26:46.650Z,21.20
2019-03-16T16:29:17.622Z,2.27
2019-03-16T16:31:48.227Z,1.60
2019-03-16T16:34:18.741Z,1.20
2019-03-16T16:36:49.123Z,10.60
2019-03-16T16:39:19.839Z,8.03
2019-03-16T16:41:50.297Z,9.97
2019-03-16T16:44:21.117Z,1.87
2019-03-16T16:46:51.831Z,2.93
2019-03-16T16:49:22.849Z,0.80
2019-03-16T16:51:53.214Z,0.70
2019-03-16T16:54:23.634Z,1.13
2019-03-16T16:56:54.142Z,1.47
2019-03-16T16:59:24.760Z,2.13
2019-03-16T17:01:55.179Z,0.80
2019-03-16T17:04:25.283Z,1.40
2019-03-16T17:06:55.877Z,1.10
2019-03-16T17:09:26.560Z,0.73
2019-03-16T17:11:57.283Z,0.70
2019-03-16T17:14:27.714Z,1.07
2019-03-16T17:16:58.739Z,0.90
2019-03-16T17:19:32.900Z,0.90
2019-03-16T17:22:03.638Z,1.07
2019-03-16T17:24:34.474Z,0.80
2019-03-16T17:27:05.155Z,0.70
2019-03-16T17:29:36.111Z,0.80
2019-03-16T17:32:06.808Z,1.40
2019-03-16T17:34:37.448Z,11.03
2019-03-16T17:37:08.325Z,8.27
2019-03-16T17:39:38.735Z,8.97
2019-03-16T17:42:09.650Z,7.40
2019-03-16T17:44:40.261Z,7.47
2019-03-16T17:47:11.273Z,8.30
2019-03-16T17:49:42.215Z,8.70
2019-03-16T17:52:13.314Z,4.70
2019-03-16T17:54:44.381Z,4.50
2019-03-16T17:57:15.152Z,3.90
2019-03-16T17:59:45.694Z,2.00
2019-03-16T18:02:15.932Z,1.20
2019-03-16T18:04:46.681Z,1.47
2019-03-16T18:07:17.933Z,1.87
2019-03-16T18:09:48.570Z,1.80
2019-03-16T18:12:19.000Z,2.70
2019-03-16T18:14:49.427Z,6.90
2019-03-16T18:17:20.205Z,5.57
2019-03-16T18:19:50.598Z,21.47
2019-03-16T18:22:21.269Z,6.93
2019-03-16T18:24:52.109Z,6.20
2019-03-16T18:27:22.628Z,5.57
2019-03-16T18:29:53.672Z,5.57
2019-03-16T18:32:24.201Z,5.03
2019-03-16T18:34:54.511Z,4.50
2019-03-16T18:37:24.834Z,4.10
2019-03-16T18:39:55.468Z,3.50
2019-03-16T18:42:27.881Z,2.98
2019-03-16T18:44:58.860Z,3.20
2019-03-16T18:47:29.559Z,2.47
2019-03-16T18:50:00.017Z,2.45
2019-03-16T18:52:30.613Z,2.25
2019-03-16T18:55:01.211Z,3.05
2019-03-16T18:57:31.664Z,5.72
2019-03-16T19:00:02.006Z,6.08
2019-03-16T19:02:32.903Z,6.75
2019-03-16T19:05:03.248Z,6.00
2019-03-16T19:07:34.026Z,8.20
2019-03-16T19:10:05.168Z,6.05
2019-03-16T19:12:36.099Z,5.10
2019-03-16T19:15:09.197Z,5.45
2019-03-16T19:17:40.577Z,4.75
2019-03-16T19:20:13.187Z,3.90
2019-03-16T19:22:44.658Z,4.62
2019-03-16T19:25:15.824Z,5.00
2019-03-16T19:27:46.843Z,5.28
2019-03-16T19:30:17.730Z,5.65
2019-03-16T19:32:48.301Z,4.15
2019-03-16T19:35:19.302Z,5.17
2019-03-16T19:37:49.816Z,3.92
2019-03-16T19:40:21.834Z,3.42
2019-03-16T19:42:52.331Z,3.10
2019-03-16T19:45:23.013Z,2.83
2019-03-16T19:47:53.525Z,3.40
2019-03-16T19:50:23.859Z,3.27
2019-03-16T19:52:57.365Z,2.30
2019-03-16T19:55:27.908Z,2.92
2019-03-16T19:57:58.494Z,4.67
2019-03-16T20:00:28.803Z,3.20
2019-03-16T20:02:59.218Z,2.90
2019-03-16T20:05:30.088Z,3.00
2019-03-16T20:08:03.817Z,2.33
2019-03-16T20:10:34.411Z,2.47
2019-03-16T20:13:05.068Z,4.33
2019-03-16T20:15:35.878Z,5.28
2019-03-16T20:18:06.791Z,4.45
2019-03-16T20:20:37.290Z,4.90
2019-03-16T20:23:07.881Z,3.42
2019-03-16T20:25:38.977Z,2.65
2019-03-16T20:28:09.860Z,2.65
2019-03-16T20:30:40.943Z,3.90
2019-03-16T20:33:12.119Z,4.30
2019-03-16T20:35:43.790Z,4.50
2019-03-16T20:38:15.107Z,4.95
2019-03-16T20:40:45.647Z,4.05
2019-03-16T20:43:16.540Z,6.75
2019-03-16T20:45:48.125Z,5.05
2019-03-16T20:48:19.211Z,10.20
2019-03-16T20:50:49.825Z,7.85
2019-03-16T20:53:20.461Z,3.80
2019-03-16T20:55:51.224Z,5.05
2019-03-16T20:58:21.479Z,5.40
2019-03-16T21:00:52.023Z,4.37
2019-03-16T21:03:22.348Z,2.85
2019-03-16T21:05:52.969Z,2.80
2019-03-16T21:08:23.496Z,4.08
2019-03-16T21:10:53.911Z,7.53
2019-03-16T21:13:24.463Z,7.85
2019-03-16T21:15:55.146Z,9.40
2019-03-16T21:18:25.711Z,10.15
2019-03-16T21:20:56.248Z,8.45
2019-03-16T21:23:26.793Z,7.05
2019-03-16T21:25:57.632Z,6.70
2019-03-16T21:28:27.962Z,7.22
2019-03-16T21:30:58.643Z,7.70
2019-03-16T21:33:30.054Z,9.00
2019-03-16T21:36:01.524Z,7.53
2019-03-16T21:38:32.648Z,6.62
2019-03-16T21:41:03.351Z,7.87
2019-03-16T21:43:34.072Z,7.42
2019-03-16T21:46:05.604Z,7.20
2019-03-16T21:48:36.279Z,7.95
2019-03-16T21:51:06.957Z,6.90
2019-03-16T21:53:37.618Z,7.60
2019-03-16T21:56:08.264Z,5.95
2019-03-16T21:58:38.756Z,5.72
2019-03-16T22:02:42.703Z,8.05
2019-03-16T22:05:12.817Z,8.45
2019-03-16T22:07:45.148Z,8.05
2019-03-16T22:10:15.982Z,9.35
2019-03-16T22:12:46.974Z,5.95
2019-03-16T22:15:17.479Z,4.53
2019-03-16T22:17:48.599Z,4.50
2019-03-16T22:20:18.882Z,4.78
2019-03-16T22:22:49.419Z,5.40
2019-03-16T22:25:19.787Z,4.37
2019-03-16T22:27:51.667Z,3.45
2019-03-16T22:30:22.689Z,3.60
2019-03-16T22:32:54.104Z,4.55
2019-03-16T22:35:25.727Z,3.65
2019-03-16T22:37:56.448Z,3.83
2019-03-16T22:40:26.787Z,3.60
2019-03-16T22:42:57.137Z,3.30
2019-03-16T22:45:27.703Z,3.87
2019-03-16T22:47:58.382Z,3.45
2019-03-16T22:50:29.027Z,3.50
2019-03-16T22:52:59.698Z,3.98
2019-03-16T22:55:30.683Z,4.15
2019-03-16T22:58:01.615Z,3.00
2019-03-16T23:00:43.368Z,3.37
2019-03-16T23:03:14.300Z,3.12
2019-03-16T23:05:46.736Z,3.60
2019-03-16T23:08:21.563Z,2.83
2019-03-16T23:10:53.357Z,3.00
2019-03-16T23:13:25.220Z,2.00
2019-03-16T23:15:54.693Z,2.52
2019-03-16T23:18:25.252Z,3.40
2019-03-16T23:20:58.513Z,3.12
2019-03-16T23:23:28.893Z,4.25
2019-03-16T23:25:59.902Z,4.72
2019-03-16T23:28:30.491Z,4.30
2019-03-16T23:31:01.541Z,3.87
2019-03-16T23:33:32.085Z,5.62
2019-03-16T23:36:02.995Z,4.72
2019-03-16T23:38:33.806Z,3.65
2019-03-16T23:41:04.610Z,4.15
2019-03-16T23:43:35.455Z,3.50
2019-03-16T23:46:06.532Z,3.35
2019-03-16T23:48:37.608Z,3.40
2019-03-16T23:51:09.638Z,2.90
2019-03-16T23:53:41.122Z,3.92
2019-03-16T23:56:12.799Z,2.92
2019-03-16T23:58:43.821Z,2.87
